Time;durP1;ratioP1;P1;durP2;ratioP2;P2;SDS_P1;SDS_P2;PMS_P1;PMS_P2;Temp;Humidity;BMP_temperature;BMP_pressure;BME280_temperature;BME280_humidity;BME280_pressure;Samples;Min_cycle;Max_cycle;Signal;HPM_P1;HPM_P2
2023/12/16 00:01:57;;;;;;;18.73;13.30;;;;;;;;;;5587229;31;34306;-73
2023/12/16 00:05:13;;;;;;;16.45;12.43;;;;;;;;;;5587599;31;34526;-72
2023/12/16 00:08:16;;;;;;;19.02;12.57;;;;;;;;;;5587495;31;34686;-73
2023/12/16 00:11:19;;;;;;;16.80;12.50;;;;;;;;;;5588038;31;34866;-72
2023/12/16 00:14:22;;;;;;;18.42;12.40;;;;;;;;;;5588081;31;35322;-73
2023/12/16 00:17:25;;;;;;;17.58;12.48;;;;;;;;;;5588153;31;35273;-73
2023/12/16 00:20:29;;;;;;;17.55;12.18;;;;;;;;;;5588079;31;35375;-72
2023/12/16 00:23:32;;;;;;;15.82;11.82;;;;;;;;;;5587864;31;34448;-72
2023/12/16 00:26:35;;;;;;;15.60;11.32;;;;;;;;;;5587970;31;34373;-71
2023/12/16 00:29:37;;;;;;;16.92;11.52;;;;;;;;;;5587850;31;34658;-71
2023/12/16 00:32:40;;;;;;;14.90;11.73;;;;;;;;;;5587964;31;34811;-74
2023/12/16 00:35:43;;;;;;;16.37;11.55;;;;;;;;;;5587705;31;35269;-73
2023/12/16 00:38:47;;;;;;;15.70;11.60;;;;;;;;;;5588147;31;35215;-73
2023/12/16 00:41:49;;;;;;;16.98;12.68;;;;;;;;;;5587713;31;35375;-73
2023/12/16 00:44:52;;;;;;;15.98;11.60;;;;;;;;;;5587731;31;35325;-73
2023/12/16 00:47:55;;;;;;;16.98;12.40;;;;;;;;;;5587724;31;34858;-73
2023/12/16 00:50:57;;;;;;;15.50;11.75;;;;;;;;;;5587991;31;35288;-73
2023/12/16 00:54:00;;;;;;;17.17;12.82;;;;;;;;;;5587666;31;35307;-72
2023/12/16 00:57:02;;;;;;;16.80;12.55;;;;;;;;;;5587774;31;34545;-73
2023/12/16 01:00:08;;;;;;;19.67;12.77;;;;;;;;;;5587370;31;35247;-72
2023/12/16 01:03:11;;;;;;;17.37;12.52;;;;;;;;;;5587289;31;35417;-72
2023/12/16 01:06:14;;;;;;;17.62;12.95;;;;;;;;;;5587381;31;34026;-73
2023/12/16 01:09:17;;;;;;;18.20;12.95;;;;;;;;;;5586515;31;34681;-73
2023/12/16 01:12:22;;;;;;;17.05;13.20;;;;;;;;;;5587249;31;34715;-72
2023/12/16 01:15:25;;;;;;;18.23;12.77;;;;;;;;;;5589556;31;34611;-72
2023/12/16 01:18:28;;;;;;;16.20;12.23;;;;;;;;;;5589876;31;34809;-73
2023/12/16 01:21:31;;;;;;;18.37;12.93;;;;;;;;;;5589882;31;34701;-73
2023/12/16 01:24:36;;;;;;;18.37;13.25;;;;;;;;;;5589980;31;35519;-73
2023/12/16 01:27:42;;;;;;;15.98;12.80;;;;;;;;;;5588954;31;35379;-73
2023/12/16 01:30:45;;;;;;;17.42;12.68;;;;;;;;;;5589785;31;34481;-72
2023/12/16 01:33:48;;;;;;;17.48;12.93;;;;;;;;;;5589744;31;34628;-73
2023/12/16 01:36:51;;;;;;;18.45;13.57;;;;;;;;;;5589617;31;34544;-73
2023/12/16 01:39:54;;;;;;;18.92;13.25;;;;;;;;;;5589585;31;34655;-73
2023/12/16 01:42:56;;;;;;;18.58;13.98;;;;;;;;;;5588908;31;35356;-73
2023/12/16 01:46:01;;;;;;;20.30;13.55;;;;;;;;;;5589650;31;35381;-73
2023/12/16 01:49:04;;;;;;;17.95;13.95;;;;;;;;;;5589584;31;34808;-73
2023/12/16 01:52:07;;;;;;;18.85;14.02;;;;;;;;;;5589564;31;34736;-73
2023/12/16 01:55:11;;;;;;;19.33;14.35;;;;;;;;;;5589763;31;33788;-73
2023/12/16 01:58:14;;;;;;;18.98;14.63;;;;;;;;;;5589479;31;35206;-72
2023/12/16 02:01:18;;;;;;;21.02;15.57;;;;;;;;;;5589755;31;35340;-73
2023/12/16 02:04:21;;;;;;;22.65;16.12;;;;;;;;;;5589485;31;34828;-73
2023/12/16 02:07:24;;;;;;;22.90;17.25;;;;;;;;;;5589433;31;35289;-73
2023/12/16 02:10:27;;;;;;;24.52;17.27;;;;;;;;;;5589657;31;35302;-73
2023/12/16 02:13:30;;;;;;;27.13;19.80;;;;;;;;;;5589273;31;34657;-73
2023/12/16 02:16:36;;;;;;;29.35;19.05;;;;;;;;;;5588797;31;34832;-72
2023/12/16 02:19:41;;;;;;;28.98;20.02;;;;;;;;;;5589541;31;35418;-72
2023/12/16 02:22:45;;;;;;;28.45;19.98;;;;;;;;;;5589144;31;34824;-72
2023/12/16 02:25:48;;;;;;;28.95;19.83;;;;;;;;;;5587647;31;35295;-72
2023/12/16 02:28:51;;;;;;;29.95;20.80;;;;;;;;;;5588420;31;34521;-72
2023/12/16 02:31:53;;;;;;;29.00;20.20;;;;;;;;;;5589221;31;34452;-74
2023/12/16 02:34:58;;;;;;;31.33;21.17;;;;;;;;;;5589552;31;35351;-73
2023/12/16 02:38:00;;;;;;;32.45;21.48;;;;;;;;;;5589227;31;34727;-72
2023/12/16 02:41:03;;;;;;;30.00;21.12;;;;;;;;;;5588264;31;34580;-73
2023/12/16 02:44:06;;;;;;;30.90;20.73;;;;;;;;;;5589053;31;34433;-73
2023/12/16 02:47:09;;;;;;;28.80;20.85;;;;;;;;;;5589076;31;34599;-72
2023/12/16 02:50:12;;;;;;;29.90;20.92;;;;;;;;;;5589016;31;34520;-72
2023/12/16 02:53:15;;;;;;;31.25;20.80;;;;;;;;;;5588992;31;34774;-73
2023/12/16 02:56:17;;;;;;;32.13;20.50;;;;;;;;;;5588650;31;34510;-73
2023/12/16 02:59:20;;;;;;;30.52;21.60;;;;;;;;;;5588937;31;35456;-73
2023/12/16 03:02:23;;;;;;;30.27;21.10;;;;;;;;;;5588816;31;34577;-72
2023/12/16 03:05:26;;;;;;;31.90;21.67;;;;;;;;;;5588825;31;34741;-72
2023/12/16 03:08:28;;;;;;;30.62;20.48;;;;;;;;;;5589144;31;34465;-73
2023/12/16 03:11:32;;;;;;;29.08;19.60;;;;;;;;;;5588910;31;34732;-73
2023/12/16 03:14:37;;;;;;;30.02;20.48;;;;;;;;;;5588876;31;35313;-73
2023/12/16 03:17:40;;;;;;;26.45;19.35;;;;;;;;;;5589102;31;33896;-73
2023/12/16 03:20:43;;;;;;;26.73;18.08;;;;;;;;;;5588839;31;34541;-73
2023/12/16 03:23:47;;;;;;;26.73;19.00;;;;;;;;;;5588766;31;35289;-73
2023/12/16 03:26:49;;;;;;;25.12;18.02;;;;;;;;;;5588739;31;35403;-73
2023/12/16 03:29:52;;;;;;;24.05;17.58;;;;;;;;;;5588753;31;34641;-73
2023/12/16 03:32:55;;;;;;;25.75;18.02;;;;;;;;;;5588767;31;34816;-73
2023/12/16 03:35:58;;;;;;;27.62;17.87;;;;;;;;;;5588792;31;34592;-73
2023/12/16 03:39:01;;;;;;;26.80;17.92;;;;;;;;;;5588529;31;34681;-72
2023/12/16 03:42:06;;;;;;;22.85;17.35;;;;;;;;;;5588421;31;35416;-71
2023/12/16 03:45:08;;;;;;;20.58;16.12;;;;;;;;;;5588444;31;34603;-72
2023/12/16 03:48:14;;;;;;;24.15;16.23;;;;;;;;;;5588365;31;34827;-72
2023/12/16 03:51:16;;;;;;;24.67;17.55;;;;;;;;;;5588708;31;35247;-72
2023/12/16 03:54:18;;;;;;;24.83;18.10;;;;;;;;;;5588301;31;35358;-72
2023/12/16 03:57:21;;;;;;;29.25;18.75;;;;;;;;;;5588229;31;35315;-73
2023/12/16 04:00:24;;;;;;;23.80;16.77;;;;;;;;;;5588427;31;34645;-73
2023/12/16 04:03:27;;;;;;;23.45;16.90;;;;;;;;;;5588277;31;34704;-73
2023/12/16 04:06:31;;;;;;;21.08;14.98;;;;;;;;;;5588351;31;34690;-73
2023/12/16 04:09:33;;;;;;;20.52;14.50;;;;;;;;;;5588345;31;35337;-72
2023/12/16 04:12:36;;;;;;;19.90;14.40;;;;;;;;;;5588191;31;34784;-73
2023/12/16 04:15:39;;;;;;;20.05;14.87;;;;;;;;;;5584322;31;128510;-72
2023/12/16 04:18:41;;;;;;;19.48;14.20;;;;;;;;;;5588543;31;35230;-72
2023/12/16 04:21:44;;;;;;;20.88;14.45;;;;;;;;;;5588113;31;34593;-73
2023/12/16 04:24:50;;;;;;;21.92;15.73;;;;;;;;;;5587377;31;34518;-72
2023/12/16 04:27:53;;;;;;;19.52;15.13;;;;;;;;;;5588056;31;35355;-72
2023/12/16 04:30:56;;;;;;;19.95;14.80;;;;;;;;;;5587953;31;35267;-72
2023/12/16 04:33:59;;;;;;;21.48;15.45;;;;;;;;;;5587861;31;35396;-73
2023/12/16 04:37:01;;;;;;;19.48;13.90;;;;;;;;;;5588099;31;34427;-73
2023/12/16 04:40:05;;;;;;;19.73;14.15;;;;;;;;;;5587763;31;34623;-72
2023/12/16 04:43:08;;;;;;;18.98;14.23;;;;;;;;;;5587660;31;34567;-72
2023/12/16 04:46:11;;;;;;;20.58;15.15;;;;;;;;;;5587643;31;34677;-72
2023/12/16 04:49:13;;;;;;;21.52;14.40;;;;;;;;;;5589695;31;34743;-72
2023/12/16 04:52:17;;;;;;;19.65;13.68;;;;;;;;;;5590232;31;34655;-72
2023/12/16 04:55:20;;;;;;;18.42;14.07;;;;;;;;;;5589988;31;35258;-72
2023/12/16 04:58:22;;;;;;;18.75;13.95;;;;;;;;;;5589997;31;34546;-73
2023/12/16 05:01:25;;;;;;;20.85;14.23;;;;;;;;;;5590095;31;34452;-72
2023/12/16 05:04:28;;;;;;;20.55;14.57;;;;;;;;;;5589956;31;35321;-73
2023/12/16 05:07:31;;;;;;;21.30;15.40;;;;;;;;;;5590324;31;34669;-73
2023/12/16 05:10:33;;;;;;;18.55;14.07;;;;;;;;;;5590008;31;34525;-73
2023/12/16 05:13:36;;;;;;;20.15;15.30;;;;;;;;;;5588957;31;34660;-72
2023/12/16 05:16:39;;;;;;;21.20;14.77;;;;;;;;;;5589635;31;34881;-73
2023/12/16 05:19:42;;;;;;;21.17;15.13;;;;;;;;;;5589739;31;35318;-73
2023/12/16 05:22:44;;;;;;;21.48;15.82;;;;;;;;;;5589885;31;34576;-72
2023/12/16 05:25:47;;;;;;;21.58;16.02;;;;;;;;;;5589821;31;35307;-73
2023/12/16 05:28:50;;;;;;;23.10;15.75;;;;;;;;;;5589819;31;34816;-73
2023/12/16 05:31:52;;;;;;;21.60;15.90;;;;;;;;;;5589745;31;34738;-73
2023/12/16 05:34:56;;;;;;;23.83;15.50;;;;;;;;;;5589480;31;35345;-72
2023/12/16 05:37:58;;;;;;;23.87;16.25;;;;;;;;;;5589910;31;34547;-73
2023/12/16 05:41:02;;;;;;;24.25;17.15;;;;;;;;;;5589988;31;35308;-73
2023/12/16 05:44:04;;;;;;;22.35;16.40;;;;;;;;;;5589642;31;34610;-73
2023/12/16 05:47:08;;;;;;;22.98;15.85;;;;;;;;;;5589492;31;35297;-73
2023/12/16 05:50:10;;;;;;;21.17;16.27;;;;;;;;;;5589438;31;34542;-73
2023/12/16 05:53:13;;;;;;;21.67;16.27;;;;;;;;;;5589451;31;35365;-73
2023/12/16 05:56:15;;;;;;;20.88;15.50;;;;;;;;;;5589401;31;34601;-73
2023/12/16 05:59:18;;;;;;;21.92;16.35;;;;;;;;;;5588652;31;35242;-73
2023/12/16 06:02:22;;;;;;;20.12;15.60;;;;;;;;;;5589494;31;35409;-73
2023/12/16 06:05:25;;;;;;;22.60;16.70;;;;;;;;;;5589392;31;34592;-72
2023/12/16 06:08:27;;;;;;;23.77;16.20;;;;;;;;;;5588620;31;34843;-72
2023/12/16 06:11:30;;;;;;;22.67;16.45;;;;;;;;;;5589283;31;34595;-72
2023/12/16 06:14:33;;;;;;;22.02;15.73;;;;;;;;;;5589318;31;35172;-74
2023/12/16 06:17:35;;;;;;;22.62;16.65;;;;;;;;;;5589332;31;34620;-74
2023/12/16 06:20:38;;;;;;;22.92;16.20;;;;;;;;;;5589467;31;34602;-74
2023/12/16 06:23:43;;;;;;;22.05;16.37;;;;;;;;;;5589794;31;34766;-73
2023/12/16 06:26:47;;;;;;;24.20;16.55;;;;;;;;;;5589347;31;34744;-73
2023/12/16 06:29:52;;;;;;;23.10;17.08;;;;;;;;;;5589395;31;35561;-73
2023/12/16 06:32:54;;;;;;;22.77;16.87;;;;;;;;;;5588745;31;34632;-73
2023/12/16 06:35:57;;;;;;;22.98;17.00;;;;;;;;;;5589191;31;34671;-73
2023/12/16 06:39:00;;;;;;;25.27;18.30;;;;;;;;;;5589186;31;35311;-73
2023/12/16 06:42:03;;;;;;;23.52;18.10;;;;;;;;;;5589202;31;34579;-73
2023/12/16 06:45:06;;;;;;;22.58;16.35;;;;;;;;;;5589061;31;34639;-73
2023/12/16 06:48:08;;;;;;;23.17;17.20;;;;;;;;;;5589029;31;34675;-73
2023/12/16 06:51:11;;;;;;;22.65;16.45;;;;;;;;;;5589000;31;34591;-72
2023/12/16 06:54:14;;;;;;;22.20;16.98;;;;;;;;;;5588893;31;35375;-72
2023/12/16 06:57:16;;;;;;;24.80;17.70;;;;;;;;;;5588839;31;34545;-73
2023/12/16 07:00:19;;;;;;;26.62;19.58;;;;;;;;;;5588834;31;34934;-73
2023/12/16 07:03:21;;;;;;;27.50;19.52;;;;;;;;;;5588892;31;34808;-73
2023/12/16 07:06:24;;;;;;;31.40;22.08;;;;;;;;;;5588953;31;35211;-73
2023/12/16 07:09:27;;;;;;;31.67;22.10;;;;;;;;;;5588570;31;34736;-73
2023/12/16 07:12:29;;;;;;;27.62;18.45;;;;;;;;;;5588484;31;34794;-73
2023/12/16 07:15:32;;;;;;;27.65;20.60;;;;;;;;;;5588741;31;34949;-73
2023/12/16 07:18:34;;;;;;;31.85;21.92;;;;;;;;;;5588845;31;34657;-73
2023/12/16 07:21:40;;;;;;;34.72;20.70;;;;;;;;;;5588729;31;35296;-73
2023/12/16 07:24:43;;;;;;;28.42;20.10;;;;;;;;;;5588628;31;35372;-73
2023/12/16 07:27:46;;;;;;;31.48;21.65;;;;;;;;;;5588717;31;35399;-73
2023/12/16 07:30:49;;;;;;;26.30;17.62;;;;;;;;;;5588448;31;34823;-73
2023/12/16 07:33:51;;;;;;;26.37;18.60;;;;;;;;;;5588533;31;34728;-73
2023/12/16 07:36:55;;;;;;;21.48;16.17;;;;;;;;;;5588791;31;34659;-74
2023/12/16 07:39:58;;;;;;;23.85;17.23;;;;;;;;;;5589088;31;35277;-73
2023/12/16 07:43:04;;;;;;;26.60;17.52;;;;;;;;;;5588651;31;34733;-73
2023/12/16 07:46:08;;;;;;;20.77;15.30;;;;;;;;;;5589043;31;35425;-73
2023/12/16 07:49:12;;;;;;;22.85;15.45;;;;;;;;;;5588008;31;34905;-73
2023/12/16 07:52:16;;;;;;;21.83;15.73;;;;;;;;;;5588555;31;35197;-73
2023/12/16 07:55:20;;;;;;;19.12;15.07;;;;;;;;;;5588273;31;34673;-75
2023/12/16 07:58:23;;;;;;;20.60;15.30;;;;;;;;;;5588399;31;34638;-74
2023/12/16 08:01:26;;;;;;;21.40;15.43;;;;;;;;;;5588573;31;35097;-74
2023/12/16 08:04:29;;;;;;;21.35;15.48;;;;;;;;;;5588267;31;34547;-73
2023/12/16 08:07:32;;;;;;;25.33;17.15;;;;;;;;;;5588343;31;34613;-76
2023/12/16 08:10:35;;;;;;;22.48;16.17;;;;;;;;;;5588303;31;35419;-74
2023/12/16 08:13:38;;;;;;;21.10;16.27;;;;;;;;;;5588271;31;34713;-74
2023/12/16 08:16:40;;;;;;;21.75;15.98;;;;;;;;;;5588062;31;35296;-74
2023/12/16 08:19:43;;;;;;;22.40;16.45;;;;;;;;;;5588418;31;34152;-74
2023/12/16 08:22:46;;;;;;;21.45;16.02;;;;;;;;;;5587072;31;35359;-73
2023/12/16 08:25:48;;;;;;;21.08;15.73;;;;;;;;;;5587889;31;34791;-74
2023/12/16 08:28:51;;;;;;;21.75;16.83;;;;;;;;;;5587078;31;35346;-74
2023/12/16 08:31:53;;;;;;;22.98;16.87;;;;;;;;;;5587829;31;34572;-75
2023/12/16 08:34:56;;;;;;;22.73;16.98;;;;;;;;;;5587764;31;35379;-73
2023/12/16 08:38:01;;;;;;;25.60;17.10;;;;;;;;;;5587024;31;34867;-73
2023/12/16 08:41:06;;;;;;;21.77;15.48;;;;;;;;;;5587829;31;34137;-74
2023/12/16 08:44:09;;;;;;;22.15;15.82;;;;;;;;;;5587639;31;34539;-73
2023/12/16 08:47:12;;;;;;;22.85;17.65;;;;;;;;;;5587311;31;35176;-74
2023/12/16 08:50:14;;;;;;;22.40;16.50;;;;;;;;;;5587836;31;34811;-74
2023/12/16 08:53:17;;;;;;;23.23;16.77;;;;;;;;;;5587629;31;34713;-75
2023/12/16 08:56:20;;;;;;;21.98;16.80;;;;;;;;;;5586980;31;35351;-73
2023/12/16 08:59:23;;;;;;;22.95;16.60;;;;;;;;;;5587015;31;34659;-73
2023/12/16 09:02:27;;;;;;;22.52;16.77;;;;;;;;;;5587332;31;34355;-74
2023/12/16 09:05:31;;;;;;;22.37;17.08;;;;;;;;;;5587417;31;35002;-75
2023/12/16 09:08:33;;;;;;;22.48;16.83;;;;;;;;;;5587405;31;34583;-74
2023/12/16 09:11:36;;;;;;;23.00;17.75;;;;;;;;;;5587343;31;35295;-74
2023/12/16 09:14:39;;;;;;;21.73;16.45;;;;;;;;;;5586937;31;34765;-74
2023/12/16 09:17:42;;;;;;;21.48;16.42;;;;;;;;;;5587020;31;35367;-73
2023/12/16 09:20:45;;;;;;;21.30;16.67;;;;;;;;;;5586860;31;34693;-74
2023/12/16 09:23:48;;;;;;;22.08;17.02;;;;;;;;;;5586789;31;34852;-74
2023/12/16 09:26:51;;;;;;;22.37;16.70;;;;;;;;;;5586952;31;34764;-73
2023/12/16 09:29:53;;;;;;;20.85;15.95;;;;;;;;;;5586699;31;34531;-73
2023/12/16 09:32:56;;;;;;;23.42;16.67;;;;;;;;;;5586780;31;34716;-75
2023/12/16 09:35:59;;;;;;;22.73;16.08;;;;;;;;;;5589582;31;35017;-75
2023/12/16 09:39:02;;;;;;;19.95;15.45;;;;;;;;;;5588918;31;34958;-75
2023/12/16 09:42:05;;;;;;;25.00;16.05;;;;;;;;;;5589463;31;34840;-73
2023/12/16 09:45:07;;;;;;;21.02;14.87;;;;;;;;;;5589467;31;34717;-74
2023/12/16 09:48:10;;;;;;;20.15;14.98;;;;;;;;;;5589471;31;35286;-74
2023/12/16 09:51:13;;;;;;;20.70;15.45;;;;;;;;;;5589460;31;34662;-74
2023/12/16 09:54:16;;;;;;;20.73;14.93;;;;;;;;;;5588981;31;35312;-74
2023/12/16 09:57:19;;;;;;;23.98;14.73;;;;;;;;;;5588770;31;35447;-74
2023/12/16 10:00:22;;;;;;;21.30;14.40;;;;;;;;;;5588444;31;34398;-74
2023/12/16 10:03:25;;;;;;;19.02;14.40;;;;;;;;;;5588963;31;36022;-74
2023/12/16 10:06:27;;;;;;;19.87;14.13;;;;;;;;;;5588574;31;34470;-74
2023/12/16 10:09:30;;;;;;;19.20;14.15;;;;;;;;;;5588736;31;35563;-74
2023/12/16 10:12:36;;;;;;;20.50;14.27;;;;;;;;;;5589331;31;34854;-76
2023/12/16 10:15:41;;;;;;;20.90;14.05;;;;;;;;;;5588735;31;35323;-74
2023/12/16 10:18:44;;;;;;;17.10;12.95;;;;;;;;;;5575267;31;34558;-74
2023/12/16 10:21:46;;;;;;;18.60;13.27;;;;;;;;;;5588777;31;34836;-76
2023/12/16 10:24:50;;;;;;;17.90;12.65;;;;;;;;;;5588785;31;34456;-74
2023/12/16 10:27:57;;;;;;;16.73;12.25;;;;;;;;;;5588787;31;34663;-75
2023/12/16 10:31:00;;;;;;;16.10;12.13;;;;;;;;;;5589034;31;35266;-75
2023/12/16 10:34:03;;;;;;;20.12;12.02;;;;;;;;;;5588950;31;35283;-75
2023/12/16 10:37:06;;;;;;;17.00;11.65;;;;;;;;;;5588643;31;34561;-75
2023/12/16 10:40:09;;;;;;;14.75;11.45;;;;;;;;;;5588714;31;32982;-75
2023/12/16 10:43:12;;;;;;;14.02;10.70;;;;;;;;;;5588346;31;34746;-75
2023/12/16 10:46:19;;;;;;;16.17;11.05;;;;;;;;;;5587829;31;34653;-74
2023/12/16 10:49:42;;;;;;;15.20;10.98;;;;;;;;;;5588526;31;34656;-74
2023/12/16 10:52:48;;;;;;;15.38;10.50;;;;;;;;;;5588383;31;34991;-74
2023/12/16 10:55:54;;;;;;;15.52;10.45;;;;;;;;;;5588429;31;35373;-74
2023/12/16 10:59:02;;;;;;;14.23;9.85;;;;;;;;;;5588121;31;35394;-74
2023/12/16 11:02:10;;;;;;;11.60;9.55;;;;;;;;;;5588391;31;35443;-75
2023/12/16 11:05:36;;;;;;;14.30;10.02;;;;;;;;;;5588514;31;34745;-74
2023/12/16 11:08:39;;;;;;;14.45;9.45;;;;;;;;;;5588445;31;34803;-73
2023/12/16 11:11:42;;;;;;;12.65;9.45;;;;;;;;;;5588536;31;35390;-74
2023/12/16 11:14:45;;;;;;;17.58;10.32;;;;;;;;;;5574312;31;35273;-75
2023/12/16 11:18:02;;;;;;;15.63;10.80;;;;;;;;;;5588605;31;34824;-76
2023/12/16 11:21:07;;;;;;;21.48;11.35;;;;;;;;;;5588623;31;34525;-74
2023/12/16 11:24:14;;;;;;;15.73;10.63;;;;;;;;;;5587766;31;34393;-73
2023/12/16 11:27:17;;;;;;;14.27;10.45;;;;;;;;;;5588537;31;34542;-75
2023/12/16 11:30:20;;;;;;;15.13;10.45;;;;;;;;;;5588696;31;34811;-75
2023/12/16 11:33:40;;;;;;;14.93;11.20;;;;;;;;;;5588430;31;34436;-75
2023/12/16 11:36:48;;;;;;;14.93;11.30;;;;;;;;;;5588535;31;34704;-74
2023/12/16 11:39:50;;;;;;;15.38;11.00;;;;;;;;;;5588589;31;35331;-75
2023/12/16 11:42:54;;;;;;;14.75;10.90;;;;;;;;;;5588311;31;35256;-74
2023/12/16 11:45:57;;;;;;;14.45;11.23;;;;;;;;;;5588245;31;35330;-75
2023/12/16 11:49:02;;;;;;;14.45;11.48;;;;;;;;;;5588801;31;35374;-75
2023/12/16 11:52:05;;;;;;;15.15;11.23;;;;;;;;;;5588416;31;35360;-75
2023/12/16 11:55:08;;;;;;;17.15;11.95;;;;;;;;;;5588147;31;35328;-74
2023/12/16 11:58:11;;;;;;;15.88;10.80;;;;;;;;;;5587161;31;34507;-74
2023/12/16 12:01:14;;;;;;;17.80;11.32;;;;;;;;;;5588327;31;35327;-73
2023/12/16 12:04:19;;;;;;;18.15;10.73;;;;;;;;;;5588246;31;35398;-74
2023/12/16 12:07:23;;;;;;;14.87;10.70;;;;;;;;;;5587411;31;35343;-74
2023/12/16 12:10:26;;;;;;;13.88;10.90;;;;;;;;;;5588165;31;35438;-74
2023/12/16 12:13:28;;;;;;;14.00;10.50;;;;;;;;;;5588175;31;34522;-74
2023/12/16 12:16:32;;;;;;;13.15;10.18;;;;;;;;;;5587948;31;34506;-75
2023/12/16 12:19:35;;;;;;;14.50;10.10;;;;;;;;;;5587435;31;35343;-74
2023/12/16 12:22:37;;;;;;;15.40;11.32;;;;;;;;;;5587969;31;34706;-76
2023/12/16 12:25:40;;;;;;;17.58;11.80;;;;;;;;;;5587976;31;34555;-74
2023/12/16 12:28:54;;;;;;;19.65;12.50;;;;;;;;;;5587836;31;34771;-75
2023/12/16 12:32:00;;;;;;;16.65;11.88;;;;;;;;;;5588163;31;34807;-74
2023/12/16 12:35:05;;;;;;;18.25;12.20;;;;;;;;;;5587010;31;35393;-76
2023/12/16 12:38:11;;;;;;;20.67;12.60;;;;;;;;;;5587582;31;35484;-73
2023/12/16 12:41:14;;;;;;;17.33;12.68;;;;;;;;;;5587732;31;34547;-76
2023/12/16 12:44:17;;;;;;;18.25;12.98;;;;;;;;;;5587910;31;35165;-75
2023/12/16 12:47:27;;;;;;;19.58;12.77;;;;;;;;;;5587856;31;34640;-75
2023/12/16 12:50:29;;;;;;;18.85;12.27;;;;;;;;;;5587736;31;34863;-75
2023/12/16 12:53:33;;;;;;;19.70;12.40;;;;;;;;;;5587590;31;34437;-74
2023/12/16 12:56:44;;;;;;;18.02;12.05;;;;;;;;;;5587446;31;35457;-74
2023/12/16 12:59:47;;;;;;;18.20;12.15;;;;;;;;;;5587352;31;34559;-72
2023/12/16 13:03:11;;;;;;;16.73;11.90;;;;;;;;;;5587237;31;35388;-75
2023/12/16 13:06:14;;;;;;;16.73;11.50;;;;;;;;;;5587457;31;35090;-75
2023/12/16 13:09:18;;;;;;;24.35;12.63;;;;;;;;;;5588163;31;34552;-74
2023/12/16 13:12:21;;;;;;;17.20;12.20;;;;;;;;;;5589396;31;34800;-73
2023/12/16 13:15:24;;;;;;;19.58;12.52;;;;;;;;;;5589573;31;34854;-75
2023/12/16 13:18:52;;;;;;;17.50;12.30;;;;;;;;;;5589582;31;34590;-73
2023/12/16 13:21:55;;;;;;;17.77;12.30;;;;;;;;;;5589460;31;34856;-73
2023/12/16 13:24:59;;;;;;;20.65;13.13;;;;;;;;;;5589476;31;35254;-74
2023/12/16 13:28:01;;;;;;;19.95;13.55;;;;;;;;;;5589691;31;34609;-74
2023/12/16 13:31:04;;;;;;;17.98;13.30;;;;;;;;;;5589624;31;34575;-74
2023/12/16 13:34:10;;;;;;;17.90;13.32;;;;;;;;;;5589465;31;35290;-74
2023/12/16 13:37:13;;;;;;;20.35;13.60;;;;;;;;;;5588857;31;34675;-74
2023/12/16 13:40:16;;;;;;;19.73;13.40;;;;;;;;;;5588813;31;34892;-74
2023/12/16 13:43:19;;;;;;;18.90;13.98;;;;;;;;;;5589753;31;34795;-74
2023/12/16 13:46:22;;;;;;;20.65;13.38;;;;;;;;;;5589065;31;34592;-74
2023/12/16 13:49:25;;;;;;;19.45;13.77;;;;;;;;;;5589089;31;34653;-74
2023/12/16 13:52:28;;;;;;;19.12;13.50;;;;;;;;;;5589088;31;34595;-74
2023/12/16 13:55:30;;;;;;;19.52;13.90;;;;;;;;;;5588317;31;34572;-74
2023/12/16 13:58:33;;;;;;;18.55;14.87;;;;;;;;;;5589221;31;34766;-73
2023/12/16 14:01:37;;;;;;;18.60;14.52;;;;;;;;;;5589125;31;34395;-74
2023/12/16 14:04:42;;;;;;;18.87;14.75;;;;;;;;;;5589009;31;34594;-74
2023/12/16 14:07:45;;;;;;;20.15;15.07;;;;;;;;;;5589058;31;35359;-74
2023/12/16 14:10:51;;;;;;;21.08;14.98;;;;;;;;;;5588855;31;34556;-74
2023/12/16 14:13:55;;;;;;;20.83;15.48;;;;;;;;;;5588571;31;34541;-74
2023/12/16 14:16:58;;;;;;;24.30;15.73;;;;;;;;;;5588263;31;34806;-73
2023/12/16 14:20:01;;;;;;;21.30;15.35;;;;;;;;;;5588331;31;35314;-73
2023/12/16 14:23:05;;;;;;;22.40;15.48;;;;;;;;;;5587846;31;33907;-73
2023/12/16 14:26:07;;;;;;;21.50;15.23;;;;;;;;;;5588765;31;35252;-73
2023/12/16 14:29:10;;;;;;;22.17;15.63;;;;;;;;;;5589148;31;34829;-73
2023/12/16 14:32:12;;;;;;;21.50;16.25;;;;;;;;;;5588904;31;34588;-72
2023/12/16 14:35:15;;;;;;;24.42;16.85;;;;;;;;;;5588660;31;34831;-74
2023/12/16 14:38:17;;;;;;;22.50;15.60;;;;;;;;;;5588733;31;34622;-74
2023/12/16 14:41:21;;;;;;;24.23;16.48;;;;;;;;;;5588710;31;34718;-74
2023/12/16 14:44:23;;;;;;;22.40;15.88;;;;;;;;;;5587839;31;34638;-74
2023/12/16 14:47:28;;;;;;;40.80;17.48;;;;;;;;;;5588692;31;34733;-74
2023/12/16 14:50:33;;;;;;;21.30;15.93;;;;;;;;;;5588738;31;34660;-75
2023/12/16 14:53:38;;;;;;;24.27;17.00;;;;;;;;;;5588705;31;34782;-74
2023/12/16 14:56:41;;;;;;;24.00;16.83;;;;;;;;;;5588608;31;34534;-74
2023/12/16 14:59:44;;;;;;;22.35;15.85;;;;;;;;;;5588879;31;35364;-75
2023/12/16 15:02:50;;;;;;;21.77;16.60;;;;;;;;;;5588500;31;35369;-73
2023/12/16 15:05:55;;;;;;;23.90;16.15;;;;;;;;;;5588480;31;35088;-73
2023/12/16 15:09:10;;;;;;;23.12;17.00;;;;;;;;;;5588631;31;35195;-74
2023/12/16 15:12:13;;;;;;;22.73;16.33;;;;;;;;;;5588510;31;34777;-74
2023/12/16 15:15:17;;;;;;;24.63;16.87;;;;;;;;;;5588326;31;35309;-75
2023/12/16 15:18:20;;;;;;;25.50;17.80;;;;;;;;;;5587718;31;34816;-74
2023/12/16 15:21:23;;;;;;;25.70;17.80;;;;;;;;;;5588825;31;34590;-74
2023/12/16 15:24:27;;;;;;;24.40;16.90;;;;;;;;;;5588471;31;35401;-74
2023/12/16 15:27:29;;;;;;;26.77;17.90;;;;;;;;;;5588190;31;34792;-74
2023/12/16 15:30:34;;;;;;;26.83;18.62;;;;;;;;;;5588241;31;34640;-73
2023/12/16 15:33:36;;;;;;;27.20;19.70;;;;;;;;;;5588037;31;34437;-74
2023/12/16 15:36:39;;;;;;;28.55;19.98;;;;;;;;;;5588299;31;34713;-73
2023/12/16 15:39:44;;;;;;;31.20;20.42;;;;;;;;;;5587691;31;34737;-74
2023/12/16 15:42:47;;;;;;;31.65;21.30;;;;;;;;;;5588358;31;34994;-73
2023/12/16 15:45:49;;;;;;;31.85;21.95;;;;;;;;;;5588162;31;35432;-73
2023/12/16 15:48:52;;;;;;;31.27;21.98;;;;;;;;;;5588366;31;34630;-73
2023/12/16 15:51:55;;;;;;;31.95;22.58;;;;;;;;;;5588317;31;35345;-74
2023/12/16 15:54:58;;;;;;;29.90;22.23;;;;;;;;;;5588159;31;34603;-74
2023/12/16 15:58:01;;;;;;;30.52;22.83;;;;;;;;;;5588018;31;35391;-76
2023/12/16 16:01:03;;;;;;;31.90;22.75;;;;;;;;;;5587773;31;34796;-73
2023/12/16 16:04:06;;;;;;;34.00;24.12;;;;;;;;;;5588090;31;34700;-74
2023/12/16 16:07:09;;;;;;;33.83;24.00;;;;;;;;;;5588046;31;34659;-74
2023/12/16 16:10:12;;;;;;;36.08;24.00;;;;;;;;;;5588310;31;35382;-74
2023/12/16 16:13:14;;;;;;;33.47;24.65;;;;;;;;;;5587876;31;34498;-74
2023/12/16 16:16:17;;;;;;;33.33;25.20;;;;;;;;;;5587559;31;34777;-74
2023/12/16 16:19:22;;;;;;;33.83;25.37;;;;;;;;;;5587620;31;34584;-74
2023/12/16 16:22:25;;;;;;;32.80;24.60;;;;;;;;;;5587814;31;34667;-74
2023/12/16 16:25:27;;;;;;;34.60;25.05;;;;;;;;;;5587588;31;34866;-73
2023/12/16 16:28:30;;;;;;;37.30;25.77;;;;;;;;;;5587816;31;34591;-75
2023/12/16 16:31:35;;;;;;;40.40;25.73;;;;;;;;;;5587934;31;35400;-75
2023/12/16 16:34:39;;;;;;;33.53;24.80;;;;;;;;;;5587983;31;35302;-75
2023/12/16 16:37:41;;;;;;;34.58;24.95;;;;;;;;;;5587649;31;34646;-74
2023/12/16 16:40:44;;;;;;;33.80;25.85;;;;;;;;;;5587911;31;34407;-73
2023/12/16 16:43:49;;;;;;;32.65;24.45;;;;;;;;;;5589249;31;34844;-74
2023/12/16 16:46:53;;;;;;;37.13;25.55;;;;;;;;;;5593969;31;34929;-74
2023/12/16 16:49:56;;;;;;;38.28;25.52;;;;;;;;;;5593727;31;34513;-73
2023/12/16 16:52:59;;;;;;;33.92;24.87;;;;;;;;;;5593547;31;35438;-74
2023/12/16 16:56:01;;;;;;;36.55;25.95;;;;;;;;;;5593611;31;34503;-74
2023/12/16 16:59:05;;;;;;;36.80;25.95;;;;;;;;;;5593918;31;34655;-73
2023/12/16 17:02:14;;;;;;;38.78;26.35;;;;;;;;;;5593772;31;34777;-74
2023/12/16 17:05:17;;;;;;;39.40;26.05;;;;;;;;;;5594201;31;33638;-77
2023/12/16 17:08:24;;;;;;;38.45;26.05;;;;;;;;;;5593583;31;34778;-74
2023/12/16 17:11:27;;;;;;;37.97;25.88;;;;;;;;;;5594184;31;34752;-74
2023/12/16 17:14:31;;;;;;;36.65;25.37;;;;;;;;;;5593648;31;35332;-74
2023/12/16 17:17:34;;;;;;;34.60;25.48;;;;;;;;;;5593236;31;34647;-74
2023/12/16 17:20:36;;;;;;;36.90;26.87;;;;;;;;;;5593393;31;35308;-74
2023/12/16 17:23:39;;;;;;;38.33;26.92;;;;;;;;;;5593062;31;34483;-74
2023/12/16 17:26:43;;;;;;;35.97;25.65;;;;;;;;;;5593033;31;35476;-74
2023/12/16 17:29:46;;;;;;;36.15;25.67;;;;;;;;;;5593259;31;34648;-74
2023/12/16 17:32:50;;;;;;;38.60;26.50;;;;;;;;;;5593008;31;35379;-75
2023/12/16 17:35:54;;;;;;;40.25;25.60;;;;;;;;;;5593054;31;35357;-74
2023/12/16 17:38:57;;;;;;;35.97;25.50;;;;;;;;;;5592143;31;35231;-74
2023/12/16 17:42:00;;;;;;;34.03;24.20;;;;;;;;;;5592957;31;35436;-74
2023/12/16 17:45:02;;;;;;;31.50;23.73;;;;;;;;;;5592859;31;35276;-74
2023/12/16 17:48:05;;;;;;;32.42;23.83;;;;;;;;;;5592589;31;34414;-74